Huvudsida
METAR-TAF:

METAR-TAF

Flygplatser :

Rom-Urbe flygplats

Rom, Italien

latitud: 41-57N, longitud: 012-30E, höjd: 18 m

Aktuellt väderrapport

Denna rapport gjordes för 12 timmar och 4 minuter sedan, klockan 15:50 UTC
Vind 10 kt från ost/sydost
Temperatur 15°C
Fuktighet 77%
Tryck 1013 hPa
Sikt 10 km eller mer
Spridda moln på en höjd av 3000 ft

METAR: LIRU 191550Z 11010KT 9999 SCT030 15/11 Q1013

Tid: 04:54 (03:54 UTC)

Väderprognos

Denna rapport gjordes för 13 timmar och 54 minuter sedan, klockan 14:00 UTC
Prognos gäller från 19 kl. 15 UTC till 19 kl. 24 UTC
Vind 14 kt från sydost
Sikt 10 km eller mer
Spridda moln på en höjd av 3000 ft
Temporärt
från 19 kl. 15 UTC till 19 kl. 18 UTC
regnskurar

TAF: LIRU 191400Z 1915/1924 14014KT 9999 SCT030 TEMPO 1915/1918 SHRA

Aktuella väderrapporter och prognoser från 4000 flygplatser (METAR- och TAF-rapporter).

De tillgängliga stationerna syns som gula och röda prickar på kartan.

För musen över prickarna för att se namnen på stationerna.

Klicka sedan för att få väderrapporter och prognoser.

För att ändra kartan: Klicka på de gröna knapparna med ett svart kors på för att zooma in; den gröna knappen med ett streck på för att zooma ut; eller på de gröna pilarna för angränsande kartor.


METAR-TAF: